createdAt,value
2018-03-20T00:00:17.366Z,-3.41
2018-03-20T00:02:45.778Z,-3.44
2018-03-20T00:05:14.152Z,-3.40
2018-03-20T00:07:42.461Z,-3.46
2018-03-20T00:10:10.825Z,-3.43
2018-03-20T00:12:39.213Z,-3.45
2018-03-20T00:15:07.578Z,-3.37
2018-03-20T00:17:35.943Z,-3.41
2018-03-20T00:20:04.287Z,-3.40
2018-03-20T00:22:32.618Z,-3.42
2018-03-20T00:25:00.982Z,-3.43
2018-03-20T00:27:29.311Z,-3.46
2018-03-20T00:29:57.729Z,-3.41
2018-03-20T00:32:26.086Z,-3.71
2018-03-20T00:34:54.419Z,-3.46
2018-03-20T00:37:22.746Z,-3.40
2018-03-20T00:39:51.096Z,-3.43
2018-03-20T00:42:19.434Z,-3.36
2018-03-20T00:44:47.807Z,-3.40
2018-03-20T00:47:16.285Z,-3.34
2018-03-20T00:49:44.667Z,-3.34
2018-03-20T00:52:13.015Z,-3.44
2018-03-20T00:54:41.339Z,-3.45
2018-03-20T00:57:09.679Z,-3.48
2018-03-20T00:59:38.600Z,-3.56
2018-03-20T01:02:06.950Z,-3.71
2018-03-20T01:04:35.339Z,-3.62
2018-03-20T01:07:03.728Z,-3.48
2018-03-20T01:09:32.071Z,-3.42
2018-03-20T01:12:00.470Z,-3.44
2018-03-20T01:14:28.810Z,-3.40
2018-03-20T01:16:57.238Z,-3.45
2018-03-20T01:19:25.650Z,-3.44
2018-03-20T01:21:54.100Z,-3.49
2018-03-20T01:24:22.432Z,-3.51
2018-03-20T01:26:50.857Z,-3.67
2018-03-20T01:29:19.175Z,-3.47
2018-03-20T01:31:47.543Z,-3.51
2018-03-20T01:34:15.893Z,-3.56
2018-03-20T01:36:44.246Z,-3.60
2018-03-20T01:39:12.639Z,-3.51
2018-03-20T01:41:40.991Z,-3.62
2018-03-20T01:44:09.398Z,-3.60
2018-03-20T01:46:37.871Z,-3.76
2018-03-20T01:49:06.206Z,-3.68
2018-03-20T01:51:34.626Z,-3.63
2018-03-20T01:54:02.945Z,-3.55
2018-03-20T01:56:31.286Z,-3.63
2018-03-20T01:58:59.652Z,-3.73
2018-03-20T02:01:27.984Z,-3.66
2018-03-20T02:03:56.384Z,-3.76
2018-03-20T02:06:24.796Z,-3.60
2018-03-20T02:08:53.161Z,-3.60
2018-03-20T02:11:21.495Z,-3.91
2018-03-20T02:13:49.852Z,-3.73
2018-03-20T02:16:18.170Z,-3.75
2018-03-20T02:18:46.528Z,-3.91
2018-03-20T02:21:14.867Z,-3.88
2018-03-20T02:23:43.228Z,-3.93
2018-03-20T02:26:11.545Z,-3.79
2018-03-20T02:28:39.886Z,-3.73
2018-03-20T02:31:08.214Z,-3.80
2018-03-20T02:33:36.575Z,-3.75
2018-03-20T02:36:04.926Z,-3.81
2018-03-20T02:38:33.286Z,-3.91
2018-03-20T02:41:01.616Z,-3.74
2018-03-20T02:43:29.970Z,-3.72
2018-03-20T02:45:58.299Z,-3.73
2018-03-20T02:48:26.668Z,-3.71
2018-03-20T02:50:55.105Z,-3.69
2018-03-20T02:53:23.440Z,-3.68
2018-03-20T02:55:51.794Z,-3.75
2018-03-20T02:58:20.115Z,-3.85
2018-03-20T03:00:48.673Z,-3.88
2018-03-20T03:03:17.065Z,-3.89
2018-03-20T03:05:45.465Z,-3.85
2018-03-20T03:08:13.856Z,-3.87
2018-03-20T03:10:42.226Z,-3.94
2018-03-20T03:13:10.578Z,-3.84
2018-03-20T03:15:38.982Z,-3.88
2018-03-20T03:18:07.362Z,-3.84
2018-03-20T03:20:35.733Z,-3.84
2018-03-20T03:23:04.063Z,-3.84
2018-03-20T03:25:32.423Z,-3.93
2018-03-20T03:28:01.791Z,-3.98
2018-03-20T03:30:30.176Z,-4.09
2018-03-20T03:32:58.553Z,-4.02
2018-03-20T03:35:26.907Z,-4.01
2018-03-20T03:37:55.307Z,-3.99
2018-03-20T03:40:23.662Z,-3.99
2018-03-20T03:42:52.075Z,-3.99
2018-03-20T03:45:20.446Z,-4.28
2018-03-20T03:47:48.784Z,-4.21
2018-03-20T03:50:17.146Z,-4.13
2018-03-20T03:52:45.478Z,-4.16
2018-03-20T03:55:13.807Z,-4.14
2018-03-20T03:57:42.154Z,-4.19
2018-03-20T04:00:10.484Z,-4.20
2018-03-20T04:02:38.842Z,-4.19
2018-03-20T04:05:07.176Z,-4.34
2018-03-20T04:07:35.664Z,-4.17
2018-03-20T04:10:03.992Z,-4.38
2018-03-20T04:12:32.359Z,-4.71
2018-03-20T04:15:00.695Z,-4.80
2018-03-20T04:17:29.044Z,-4.84
2018-03-20T04:19:57.383Z,-4.83
2018-03-20T04:22:25.826Z,-4.56
2018-03-20T04:24:54.251Z,-4.45
2018-03-20T04:27:22.858Z,-4.42
2018-03-20T04:29:51.262Z,-4.39
2018-03-20T04:32:19.740Z,-4.48
2018-03-20T04:34:48.126Z,-4.47
2018-03-20T04:37:16.550Z,-4.43
2018-03-20T04:39:44.889Z,-4.44
2018-03-20T04:42:13.252Z,-4.35
2018-03-20T04:44:41.569Z,-4.34
2018-03-20T04:47:09.938Z,-4.33
2018-03-20T04:49:38.255Z,-4.26
2018-03-20T04:52:06.624Z,-4.27
2018-03-20T04:54:34.955Z,-4.25
2018-03-20T04:57:03.283Z,-4.24
2018-03-20T04:59:31.639Z,-4.43
2018-03-20T05:01:59.967Z,-4.47
2018-03-20T05:04:28.350Z,-4.40
2018-03-20T05:06:56.676Z,-4.44
2018-03-20T05:09:25.054Z,-4.27
2018-03-20T05:11:53.376Z,-4.57
2018-03-20T05:14:21.898Z,-4.29
2018-03-20T05:16:50.215Z,-4.20
2018-03-20T05:22:34.758Z,-4.11
2018-03-20T05:25:03.135Z,-4.03
2018-03-20T05:27:31.478Z,-4.02
2018-03-20T05:29:59.822Z,-3.99
2018-03-20T05:32:28.150Z,-3.96
2018-03-20T05:34:56.494Z,-3.98
2018-03-20T05:37:24.833Z,-3.96
2018-03-20T05:39:53.194Z,-3.91
2018-03-20T05:42:21.521Z,-4.20
2018-03-20T05:44:49.871Z,-4.06
2018-03-20T05:47:32.832Z,-4.06
2018-03-20T05:50:06.780Z,-4.17
2018-03-20T05:52:35.132Z,-4.40
2018-03-20T05:55:03.478Z,-4.09
2018-03-20T05:57:31.875Z,-4.30
2018-03-20T06:00:00.192Z,-3.94
2018-03-20T06:02:28.540Z,-3.98
2018-03-20T06:04:56.904Z,-3.87
2018-03-20T06:07:25.267Z,-3.83
2018-03-20T06:09:53.591Z,-3.87
2018-03-20T06:12:21.946Z,-3.81
2018-03-20T06:14:50.266Z,-3.72
2018-03-20T06:17:18.615Z,-3.74
2018-03-20T06:19:46.970Z,-3.92
2018-03-20T06:22:15.318Z,-3.78
2018-03-20T06:24:43.658Z,-3.74
2018-03-20T06:27:12.014Z,-3.61
2018-03-20T06:29:40.387Z,-3.75
2018-03-20T06:32:08.754Z,-3.69
2018-03-20T06:34:37.058Z,-3.57
2018-03-20T06:37:05.526Z,-3.52
2018-03-20T06:39:33.915Z,-3.56
2018-03-20T06:42:02.313Z,-3.44
2018-03-20T06:44:30.622Z,-3.81
2018-03-20T06:46:58.983Z,-3.59
2018-03-20T06:49:27.325Z,-3.65
2018-03-20T06:51:55.663Z,-3.61
2018-03-20T06:54:24.022Z,-3.61
2018-03-20T06:56:52.447Z,-3.61
2018-03-20T06:59:20.803Z,-3.43
2018-03-20T07:01:49.131Z,-3.49
2018-03-20T07:04:17.588Z,-3.50
2018-03-20T07:06:45.919Z,-3.39
2018-03-20T07:09:14.259Z,-3.63
2018-03-20T07:11:42.588Z,-3.34
2018-03-20T07:14:10.989Z,-3.32
2018-03-20T07:16:39.310Z,-3.25
2018-03-20T07:19:07.658Z,-3.35
2018-03-20T07:21:35.982Z,-2.95
2018-03-20T07:24:04.395Z,-3.02
2018-03-20T07:26:32.717Z,-2.88
2018-03-20T07:29:01.916Z,-2.99
2018-03-20T07:31:30.252Z,-2.76
2018-03-20T07:33:58.607Z,-2.62
2018-03-20T07:36:26.931Z,-2.44
2018-03-20T07:38:55.319Z,-2.40
2018-03-20T07:41:23.667Z,-2.69
2018-03-20T07:43:52.033Z,-2.21
2018-03-20T07:46:20.434Z,-2.16
2018-03-20T07:48:48.782Z,-2.09
2018-03-20T07:51:17.141Z,-2.05
2018-03-20T07:53:45.492Z,-2.25
2018-03-20T07:56:13.833Z,-2.23
2018-03-20T07:58:42.158Z,-2.20
2018-03-20T08:01:10.501Z,-2.05
2018-03-20T08:03:38.862Z,-1.79
2018-03-20T08:06:07.385Z,-1.94
2018-03-20T08:08:35.720Z,-1.97
2018-03-20T08:11:04.114Z,-1.75
2018-03-20T08:13:32.662Z,-1.58
2018-03-20T08:16:01.065Z,-1.66
2018-03-20T08:18:29.389Z,-1.45
2018-03-20T08:20:57.825Z,-1.54
2018-03-20T08:23:26.159Z,-1.33
2018-03-20T08:25:54.659Z,-1.14
2018-03-20T08:28:23.055Z,-1.17
2018-03-20T08:30:51.412Z,-0.92
2018-03-20T08:33:19.818Z,-0.90
2018-03-20T08:35:48.171Z,-0.70
2018-03-20T08:38:16.504Z,-0.36
2018-03-20T08:40:44.868Z,-0.24
2018-03-20T08:43:13.450Z,-0.64
2018-03-20T08:45:41.806Z,-0.69
2018-03-20T08:48:10.199Z,-0.58
2018-03-20T08:50:38.544Z,-0.73
2018-03-20T08:53:06.882Z,-0.50
2018-03-20T08:55:35.916Z,-0.30
2018-03-20T08:58:04.319Z,-0.86
2018-03-20T09:00:32.702Z,-0.09
2018-03-20T09:03:01.049Z,-0.38
2018-03-20T09:05:29.386Z,-0.56
2018-03-20T09:07:57.730Z,-0.37
2018-03-20T09:10:26.103Z,-0.58
2018-03-20T09:12:54.461Z,-0.38
2018-03-20T09:15:22.862Z,-0.54
2018-03-20T09:17:51.220Z,-0.45
2018-03-20T09:20:19.618Z,0.01
2018-03-20T09:22:48.010Z,0.10
2018-03-20T09:25:16.338Z,-0.06
2018-03-20T09:27:44.752Z,-0.46
2018-03-20T09:30:13.080Z,-0.22
2018-03-20T09:32:41.511Z,0.15
2018-03-20T09:35:09.883Z,0.03
2018-03-20T09:37:38.223Z,-0.20
2018-03-20T09:40:06.602Z,0.14
2018-03-20T09:42:34.935Z,0.39
2018-03-20T09:45:03.259Z,0.04
2018-03-20T09:47:31.690Z,-0.38
2018-03-20T09:50:00.007Z,0.50
2018-03-20T09:52:28.507Z,0.60
2018-03-20T09:54:56.838Z,0.70
2018-03-20T09:57:25.911Z,0.83
2018-03-20T09:59:54.248Z,0.77
2018-03-20T10:02:22.576Z,0.52
2018-03-20T10:04:50.942Z,0.28
2018-03-20T10:07:19.472Z,0.45
2018-03-20T10:09:47.723Z,0.65
2018-03-20T10:12:16.043Z,1.01
2018-03-20T10:14:44.388Z,1.15
2018-03-20T10:17:12.704Z,0.85
2018-03-20T10:19:41.111Z,1.00
2018-03-20T10:22:09.487Z,1.03
2018-03-20T10:24:37.824Z,0.93
2018-03-20T10:27:06.149Z,1.15
2018-03-20T10:29:34.566Z,1.11
2018-03-20T10:32:02.894Z,0.63
2018-03-20T10:34:31.247Z,0.40
2018-03-20T10:36:59.568Z,0.72
2018-03-20T10:39:27.914Z,0.69
2018-03-20T10:41:56.344Z,0.96
2018-03-20T10:44:24.672Z,0.76
2018-03-20T10:46:53.058Z,0.93
2018-03-20T10:49:21.436Z,0.83
2018-03-20T10:51:49.764Z,0.67
2018-03-20T10:54:18.123Z,0.67
2018-03-20T10:56:46.448Z,0.49
2018-03-20T10:59:14.822Z,0.63
2018-03-20T11:01:46.200Z,0.95
2018-03-20T11:04:14.523Z,1.32
2018-03-20T11:06:42.968Z,1.25
2018-03-20T11:09:11.283Z,1.20
2018-03-20T11:11:39.707Z,1.36
2018-03-20T11:14:08.019Z,1.42
2018-03-20T11:16:36.367Z,1.30
2018-03-20T11:19:04.687Z,1.49
2018-03-20T11:21:33.019Z,1.40
2018-03-20T11:24:01.342Z,2.17
2018-03-20T11:26:29.837Z,2.48
2018-03-20T11:28:58.300Z,2.89
2018-03-20T11:31:26.640Z,3.26
2018-03-20T11:33:55.022Z,3.15
2018-03-20T11:36:23.378Z,2.75
2018-03-20T11:38:51.698Z,3.35
2018-03-20T11:41:20.051Z,3.32
2018-03-20T11:43:48.436Z,3.21
2018-03-20T11:46:16.807Z,4.09
2018-03-20T11:48:45.126Z,3.54
2018-03-20T11:51:13.487Z,2.84
2018-03-20T11:53:41.953Z,2.66
2018-03-20T11:56:10.256Z,5.35
2018-03-20T11:58:38.590Z,6.44
2018-03-20T12:01:06.912Z,5.96
2018-03-20T12:03:35.266Z,4.31
2018-03-20T12:06:03.578Z,2.89
2018-03-20T12:08:43.979Z,2.21
2018-03-20T12:11:12.374Z,4.85
2018-03-20T12:13:40.752Z,5.10
2018-03-20T12:16:10.048Z,6.60
2018-03-20T12:18:38.401Z,6.32
2018-03-20T12:21:06.818Z,6.15
2018-03-20T12:23:35.147Z,7.48
2018-03-20T12:26:03.495Z,8.88
2018-03-20T12:28:31.846Z,9.11
2018-03-20T12:31:00.226Z,9.42
2018-03-20T12:33:28.561Z,9.48
2018-03-20T12:35:56.930Z,6.79
2018-03-20T12:38:25.346Z,4.74
2018-03-20T12:40:53.728Z,3.57
2018-03-20T12:43:22.114Z,2.63
2018-03-20T12:45:50.429Z,2.22
2018-03-20T12:48:18.756Z,2.22
2018-03-20T12:50:47.112Z,3.63
2018-03-20T12:53:15.458Z,7.71
2018-03-20T12:55:43.800Z,9.78
2018-03-20T12:58:12.132Z,10.66
2018-03-20T13:00:40.475Z,10.48
2018-03-20T13:03:08.827Z,10.21
2018-03-20T13:05:37.173Z,11.79
2018-03-20T13:08:05.486Z,11.97
2018-03-20T13:10:33.903Z,12.17
2018-03-20T13:13:02.276Z,11.60
2018-03-20T13:15:30.614Z,11.73
2018-03-20T13:17:58.959Z,12.20
2018-03-20T13:20:27.378Z,10.19
2018-03-20T13:22:55.705Z,12.16
2018-03-20T13:25:24.126Z,8.91
2018-03-20T13:27:52.476Z,12.18
2018-03-20T13:30:20.891Z,8.93
2018-03-20T13:32:49.210Z,10.22
2018-03-20T13:35:17.565Z,11.93
2018-03-20T13:37:45.887Z,11.33
2018-03-20T13:40:14.302Z,9.68
2018-03-20T13:42:42.623Z,9.82
2018-03-20T13:45:10.967Z,7.99
2018-03-20T13:47:39.332Z,9.87
2018-03-20T13:50:07.639Z,9.99
2018-03-20T13:52:35.987Z,10.61
2018-03-20T13:55:04.354Z,10.18
2018-03-20T13:57:32.780Z,10.48
2018-03-20T14:00:01.115Z,10.27
2018-03-20T14:02:29.495Z,8.78
2018-03-20T14:04:57.818Z,8.45
2018-03-20T14:07:26.168Z,7.87
2018-03-20T14:09:54.488Z,7.86
2018-03-20T14:12:22.839Z,5.78
2018-03-20T14:14:51.151Z,5.54
2018-03-20T14:17:19.511Z,5.99
2018-03-20T14:19:47.827Z,6.10
2018-03-20T14:22:16.181Z,4.96
2018-03-20T14:24:44.598Z,5.12
2018-03-20T14:27:12.963Z,4.62
2018-03-20T14:29:41.350Z,5.18
2018-03-20T14:32:09.694Z,3.64
2018-03-20T14:34:38.093Z,4.61
2018-03-20T14:37:06.482Z,4.35
2018-03-20T14:39:34.864Z,4.01
2018-03-20T14:42:03.239Z,4.41
2018-03-20T14:44:31.558Z,5.17
2018-03-20T14:46:59.900Z,6.12
2018-03-20T14:49:28.271Z,5.19
2018-03-20T14:51:56.599Z,4.90
2018-03-20T14:54:24.935Z,5.34
2018-03-20T14:56:53.267Z,4.90
2018-03-20T14:59:21.678Z,6.16
2018-03-20T15:01:50.116Z,6.96
2018-03-20T15:04:18.435Z,6.84
2018-03-20T15:06:46.814Z,7.18
2018-03-20T15:09:15.165Z,8.74
2018-03-20T15:11:43.575Z,6.76
2018-03-20T15:14:11.942Z,7.27
2018-03-20T15:16:40.340Z,7.16
2018-03-20T15:19:08.702Z,7.28
2018-03-20T15:21:37.098Z,8.16
2018-03-20T15:24:05.434Z,8.10
2018-03-20T15:26:33.875Z,7.63
2018-03-20T15:29:02.735Z,8.68
2018-03-20T15:31:31.128Z,8.64
2018-03-20T15:33:59.478Z,5.57
2018-03-20T15:36:27.787Z,3.83
2018-03-20T15:38:56.144Z,6.57
2018-03-20T15:41:24.478Z,7.42
2018-03-20T15:43:52.845Z,7.91
2018-03-20T15:46:21.189Z,8.32
2018-03-20T15:48:49.520Z,7.37
2018-03-20T15:51:17.880Z,8.07
2018-03-20T15:53:46.214Z,8.09
2018-03-20T15:56:14.562Z,7.49
2018-03-20T15:58:42.891Z,7.30
2018-03-20T16:01:11.253Z,8.11
2018-03-20T16:03:39.646Z,7.38
2018-03-20T16:06:07.988Z,7.14
2018-03-20T16:08:36.396Z,6.31
2018-03-20T16:11:04.763Z,5.53
2018-03-20T16:13:33.084Z,5.21
2018-03-20T16:16:01.507Z,3.51
2018-03-20T16:18:29.883Z,4.13
2018-03-20T16:20:58.219Z,5.93
2018-03-20T16:23:26.546Z,4.48
2018-03-20T16:25:54.907Z,4.09
2018-03-20T16:28:23.311Z,4.34
2018-03-20T16:30:51.781Z,3.02
2018-03-20T16:33:20.154Z,4.19
2018-03-20T16:35:48.555Z,5.11
2018-03-20T16:38:16.919Z,4.98
2018-03-20T16:40:45.278Z,5.51
2018-03-20T16:43:13.590Z,4.98
2018-03-20T16:45:42.058Z,5.15
2018-03-20T16:48:10.379Z,4.47
2018-03-20T16:50:38.682Z,4.10
2018-03-20T16:53:07.128Z,3.82
2018-03-20T16:55:35.444Z,3.49
2018-03-20T16:58:03.781Z,2.92
2018-03-20T17:00:32.091Z,2.74
2018-03-20T17:03:00.435Z,2.70
2018-03-20T17:05:28.772Z,2.52
2018-03-20T17:07:57.107Z,2.28
2018-03-20T17:10:25.426Z,2.18
2018-03-20T17:12:53.767Z,2.09
2018-03-20T17:15:22.089Z,1.69
2018-03-20T17:17:50.452Z,1.69
2018-03-20T17:20:18.770Z,1.61
2018-03-20T17:22:47.183Z,1.66
2018-03-20T17:25:15.462Z,1.66
2018-03-20T17:27:43.807Z,1.46
2018-03-20T17:30:12.167Z,1.17
2018-03-20T17:32:40.500Z,1.19
2018-03-20T17:35:08.916Z,1.22
2018-03-20T17:37:37.259Z,0.98
2018-03-20T17:40:05.591Z,1.06
2018-03-20T17:42:34.143Z,1.29
2018-03-20T17:45:02.455Z,1.15
2018-03-20T17:47:30.783Z,1.15
2018-03-20T17:49:59.175Z,1.14
2018-03-20T17:52:27.570Z,1.07
2018-03-20T17:54:55.935Z,0.91
2018-03-20T17:57:24.282Z,0.70
2018-03-20T17:59:52.607Z,0.67
2018-03-20T18:02:20.926Z,0.67
2018-03-20T18:04:49.352Z,0.66
2018-03-20T18:07:17.734Z,0.74
2018-03-20T18:09:46.079Z,0.91
2018-03-20T18:12:14.479Z,0.94
2018-03-20T18:14:42.832Z,0.96
2018-03-20T18:17:11.178Z,0.92
2018-03-20T18:19:39.479Z,0.94
2018-03-20T18:22:07.803Z,0.88
2018-03-20T18:24:36.131Z,0.78
2018-03-20T18:27:04.464Z,0.66
2018-03-20T18:29:32.831Z,0.79
2018-03-20T18:32:01.155Z,0.84
2018-03-20T18:34:29.532Z,0.56
2018-03-20T18:36:57.865Z,0.61
2018-03-20T18:39:26.199Z,0.66
2018-03-20T18:41:54.524Z,0.64
2018-03-20T18:44:22.887Z,0.54
2018-03-20T18:46:51.234Z,0.39
2018-03-20T18:49:19.643Z,0.31
2018-03-20T18:51:48.021Z,0.35
2018-03-20T18:54:16.407Z,0.27
2018-03-20T18:56:44.747Z,0.24
2018-03-20T18:59:13.059Z,0.18
2018-03-20T19:01:41.398Z,0.23
2018-03-20T19:04:09.732Z,0.16
2018-03-20T19:06:38.064Z,0.07
2018-03-20T19:09:06.385Z,0.11
2018-03-20T19:11:34.742Z,0.03
2018-03-20T19:14:03.082Z,0.01
2018-03-20T19:16:31.432Z,-0.23
2018-03-20T19:18:59.740Z,0.00
2018-03-20T19:21:28.084Z,-0.07
2018-03-20T19:23:56.414Z,-0.24
2018-03-20T19:26:24.766Z,-0.29
2018-03-20T19:28:53.133Z,-0.48
2018-03-20T19:31:21.476Z,-0.21
2018-03-20T19:33:49.815Z,-0.19
2018-03-20T19:36:18.206Z,-0.08
2018-03-20T19:38:46.543Z,-0.26
2018-03-20T19:41:15.017Z,-0.26
2018-03-20T19:43:43.326Z,-0.50
2018-03-20T19:46:11.674Z,-0.75
2018-03-20T19:48:40.152Z,-0.52
2018-03-20T19:51:08.672Z,-0.55
2018-03-20T19:53:37.622Z,-0.62
2018-03-20T19:56:07.200Z,-0.44
2018-03-20T19:58:35.822Z,-0.58
2018-03-20T20:01:04.243Z,-0.60
2018-03-20T20:03:33.784Z,-0.51
2018-03-20T20:06:03.378Z,-0.37
2018-03-20T20:08:31.759Z,-0.33
2018-03-20T20:11:00.127Z,-0.22
2018-03-20T20:13:28.501Z,-0.25
2018-03-20T20:15:56.880Z,-0.24
2018-03-20T20:18:25.244Z,-0.20
2018-03-20T20:20:55.438Z,-0.27
2018-03-20T20:23:23.803Z,-0.27
2018-03-20T20:25:52.235Z,-0.26
2018-03-20T20:28:20.587Z,-0.34
2018-03-20T20:30:49.336Z,-0.37
2018-03-20T20:33:17.682Z,-0.22
2018-03-20T20:35:46.059Z,-0.23
2018-03-20T20:38:14.457Z,-0.31
2018-03-20T20:40:42.815Z,-0.37
2018-03-20T20:43:11.234Z,-0.31
2018-03-20T20:45:39.564Z,-0.26
2018-03-20T20:48:07.949Z,-0.75
2018-03-20T20:50:36.287Z,-0.87
2018-03-20T20:53:04.704Z,-0.58
2018-03-20T20:55:33.051Z,-0.60
2018-03-20T20:58:01.382Z,-0.43
2018-03-20T21:00:29.727Z,-0.32
2018-03-20T21:02:58.067Z,-0.95
2018-03-20T21:05:26.410Z,-0.85
2018-03-20T21:07:54.883Z,-0.51
2018-03-20T21:10:23.228Z,-0.34
2018-03-20T21:12:51.627Z,-0.30
2018-03-20T21:15:19.974Z,-0.44
2018-03-20T21:17:48.383Z,-0.36
2018-03-20T21:20:16.758Z,-0.41
2018-03-20T21:22:45.091Z,-0.52
2018-03-20T21:25:13.444Z,-0.71
2018-03-20T21:27:41.762Z,-0.61
2018-03-20T21:30:10.204Z,-0.61
2018-03-20T21:32:38.549Z,-0.63
2018-03-20T21:35:06.897Z,-0.56
2018-03-20T21:37:35.224Z,-0.65
2018-03-20T21:40:03.702Z,-0.43
2018-03-20T21:42:32.044Z,-0.48
2018-03-20T21:45:00.415Z,-0.45
2018-03-20T21:47:28.731Z,-0.38
2018-03-20T21:49:57.121Z,-0.40
2018-03-20T21:52:25.483Z,-0.36
2018-03-20T21:54:53.899Z,-0.45
2018-03-20T21:57:22.331Z,-0.58
2018-03-20T21:59:50.654Z,-0.48
2018-03-20T22:02:19.092Z,-0.53
2018-03-20T22:04:47.418Z,-0.41
2018-03-20T22:07:15.848Z,-0.44
2018-03-20T22:09:44.325Z,-0.67
2018-03-20T22:12:12.710Z,-0.75
2018-03-20T22:14:41.034Z,-0.76
2018-03-20T22:17:09.397Z,-0.82
2018-03-20T22:19:37.714Z,-0.89
2018-03-20T22:22:06.069Z,-0.59
2018-03-20T22:24:34.511Z,-0.46
2018-03-20T22:27:02.908Z,-0.51
2018-03-20T22:29:31.227Z,-0.51
2018-03-20T22:31:59.636Z,-0.42
2018-03-20T22:34:27.965Z,-0.41
2018-03-20T22:36:56.302Z,-0.39
2018-03-20T22:39:24.634Z,-0.41
2018-03-20T22:41:53.050Z,-0.41
2018-03-20T22:44:21.382Z,-0.49
2018-03-20T22:46:49.806Z,-0.38
2018-03-20T22:49:18.141Z,-0.45
2018-03-20T22:51:46.461Z,-0.55
2018-03-20T22:54:14.813Z,-0.92
2018-03-20T22:56:43.134Z,-0.86
2018-03-20T22:59:11.600Z,-0.59
2018-03-20T23:01:39.926Z,-0.44
2018-03-20T23:04:08.283Z,-0.44
2018-03-20T23:06:36.621Z,-0.41
2018-03-20T23:09:04.995Z,-0.33
2018-03-20T23:11:33.332Z,-0.41
2018-03-20T23:14:01.751Z,-0.35
2018-03-20T23:16:30.130Z,-0.35
2018-03-20T23:18:58.494Z,-0.41
2018-03-20T23:21:26.807Z,-0.61
2018-03-20T23:23:55.166Z,-0.49
2018-03-20T23:26:23.496Z,-0.53
2018-03-20T23:28:51.936Z,-0.24
2018-03-20T23:31:20.270Z,-0.23
2018-03-20T23:33:48.680Z,-0.35
2018-03-20T23:36:17.076Z,-0.39
2018-03-20T23:38:45.436Z,-0.46
2018-03-20T23:41:13.759Z,-0.37
2018-03-20T23:43:42.113Z,-0.52
2018-03-20T23:46:10.443Z,-0.52
2018-03-20T23:48:38.810Z,-0.60
2018-03-20T23:51:07.152Z,-0.85
2018-03-20T23:53:35.479Z,-0.96
2018-03-20T23:56:03.887Z,-1.05
2018-03-20T23:58:32.233Z,-1.09
